Time;durP1;ratioP1;P1;durP2;ratioP2;P2;SDS_P1;SDS_P2;PMS_P1;PMS_P2;Temp;Humidity;BMP_temperature;BMP_pressure;BME280_temperature;BME280_humidity;BME280_pressure;Samples;Min_cycle;Max_cycle;Signal;HPM_P1;HPM_P2
2022/06/11 00:02:25;;;;;;;3.77;2.13;;;;;;;-145.69;100.00;72057.13;4995879;28;20209;-83
2022/06/11 00:04:52;;;;;;;8.37;2.33;;;;;;;-145.69;100.00;72061.09;4995928;28;20206;-82
2022/06/11 00:07:22;;;;;;;4.53;2.17;;;;;;;-145.69;100.00;72071.03;4995655;28;20252;-83
2022/06/11 00:09:48;;;;;;;3.93;2.17;;;;;;;-145.69;100.00;72065.06;4995674;28;20205;-83
2022/06/11 00:12:16;;;;;;;4.30;2.33;;;;;;;-145.69;100.00;72069.06;4995463;28;20197;-82
2022/06/11 00:14:48;;;;;;;3.07;1.93;;;;;;;-145.69;100.00;72071.03;4995459;28;20233;-82
2022/06/11 00:17:16;;;;;;;4.33;2.10;;;;;;;-145.69;100.00;72075.03;4995866;28;20209;-83
2022/06/11 00:19:46;;;;;;;4.43;2.23;;;;;;;-145.69;100.00;72077.00;4995110;28;20202;-83
2022/06/11 00:22:15;;;;;;;4.53;1.70;;;;;;;-145.69;100.00;72082.97;4995760;28;20208;-83
2022/06/11 00:24:44;;;;;;;3.03;2.50;;;;;;;-145.69;100.00;72100.91;4995390;28;20202;-83
2022/06/11 00:27:11;;;;;;;4.50;2.40;;;;;;;-145.69;100.00;72112.84;4995101;28;20715;-84
2022/06/11 00:29:40;;;;;;;4.87;2.40;;;;;;;-145.69;100.00;72098.91;4995140;28;20201;-82
2022/06/11 00:32:12;;;;;;;6.27;2.33;;;;;;;-145.69;100.00;72073.03;4995201;28;20228;-82
2022/06/11 00:34:40;;;;;;;8.03;2.47;;;;;;;-145.69;100.00;72082.97;4995217;28;20205;-82
2022/06/11 00:37:07;;;;;;;4.27;2.13;;;;;;;-145.69;100.00;72082.97;4995130;28;20679;-84
2022/06/11 00:39:39;;;;;;;4.30;2.43;;;;;;;-145.69;100.00;72071.03;4993999;28;20244;-83
2022/06/11 00:42:12;;;;;;;4.93;2.30;;;;;;;-145.69;100.00;72057.13;4994723;28;20564;-84
2022/06/11 00:44:39;;;;;;;4.13;2.70;;;;;;;-145.69;100.00;72057.13;4995360;28;20611;-83
2022/06/11 00:47:15;;;;;;;4.23;2.23;;;;;;;-145.69;100.00;72059.09;4994676;28;20288;-84
2022/06/11 00:49:47;;;;;;;6.47;2.50;;;;;;;-145.69;100.00;72069.06;4995091;28;20201;-84
2022/06/11 00:52:21;;;;;;;5.67;2.47;;;;;;;-145.69;100.00;72073.03;4994828;28;20280;-83
2022/06/11 00:54:53;;;;;;;4.07;2.20;;;;;;;-145.69;100.00;72086.97;4995132;28;20612;-84
2022/06/11 00:57:20;;;;;;;3.73;2.23;;;;;;;-145.69;100.00;72082.97;4994745;28;20312;-82
2022/06/11 00:59:52;;;;;;;3.60;2.10;;;;;;;-145.69;100.00;72079.00;4994654;28;20252;-84
2022/06/11 01:02:20;;;;;;;4.87;2.23;;;;;;;-145.69;100.00;72079.00;4993354;28;20675;-82
2022/06/11 01:04:51;;;;;;;4.00;2.27;;;;;;;-145.69;100.00;72063.09;4994418;28;20212;-82
2022/06/11 01:07:42;;;;;;;4.57;2.70;;;;;;;-145.69;100.00;72055.13;4994861;28;20204;-84
2022/06/11 01:10:21;;;;;;;3.67;2.47;;;;;;;-145.69;100.00;72037.22;4993172;28;20611;-82
2022/06/11 01:13:01;;;;;;;3.43;2.20;;;;;;;-145.69;100.00;72019.31;4994263;28;20197;-83
2022/06/11 01:15:32;;;;;;;3.77;2.30;;;;;;;-145.69;100.00;72031.25;4994370;28;20213;-83
2022/06/11 01:18:10;;;;;;;2.80;2.30;;;;;;;-145.69;100.00;72039.19;4994638;28;20209;-83
2022/06/11 01:20:50;;;;;;;3.13;2.20;;;;;;;-145.69;100.00;72081.00;4994731;28;20213;-85
2022/06/11 01:23:46;;;;;;;6.60;2.33;;;;;;;-145.69;100.00;72136.72;4994066;28;20664;-84
2022/06/11 01:26:38;;;;;;;5.73;2.47;;;;;;;-145.69;100.00;72142.69;4977997;28;20205;-83
2022/06/11 01:29:47;;;;;;;3.97;2.50;;;;;;;-145.69;100.00;72144.69;4985227;28;20233;-82
2022/06/11 01:32:24;;;;;;;3.37;2.50;;;;;;;-145.69;100.00;72130.75;4964344;28;20233;-83
2022/06/11 01:35:07;;;;;;;4.60;2.37;;;;;;;-145.69;100.00;72136.72;4983915;28;20213;-83
2022/06/11 01:37:40;;;;;;;5.27;2.83;;;;;;;-145.69;100.00;72120.81;4994280;28;20209;-81
2022/06/11 01:40:15;;;;;;;4.03;2.57;;;;;;;-145.69;100.00;72112.84;4994087;28;20211;-82
2022/06/11 01:42:46;;;;;;;3.27;2.53;;;;;;;-145.69;100.00;72136.72;4994066;28;20209;-83
2022/06/11 01:45:19;;;;;;;6.63;2.50;;;;;;;-145.69;100.00;72160.59;4993475;28;20722;-83
2022/06/11 01:47:51;;;;;;;7.70;2.70;;;;;;;-145.69;100.00;72194.44;4993783;28;20233;-83
2022/06/11 01:50:22;;;;;;;4.40;2.53;;;;;;;-145.69;100.00;72224.28;4993875;28;20667;-84
2022/06/11 01:53:18;;;;;;;6.07;3.07;;;;;;;-145.69;100.00;72214.34;4993753;28;20209;-83
2022/06/11 01:56:01;;;;;;;4.37;2.57;;;;;;;-145.69;100.00;72182.50;4993561;28;20217;-83
2022/06/11 01:58:41;;;;;;;8.37;3.20;;;;;;;-145.69;100.00;72184.50;4974325;28;20209;-83
2022/06/11 02:01:17;;;;;;;10.47;3.50;;;;;;;-145.69;100.00;72178.53;4982580;28;20676;-82
2022/06/11 02:03:57;;;;;;;6.93;2.90;;;;;;;-145.69;100.00;72178.53;4993640;28;20197;-82
2022/06/11 02:06:46;;;;;;;6.30;2.60;;;;;;;-145.69;100.00;72184.50;4993775;28;20205;-83
2022/06/11 02:09:25;;;;;;;6.30;2.70;;;;;;;-145.69;100.00;72178.53;4993652;28;20269;-82
2022/06/11 02:11:58;;;;;;;4.83;2.80;;;;;;;-145.69;100.00;72178.53;4993588;28;20201;-82
2022/06/11 02:14:30;;;;;;;5.83;2.80;;;;;;;-145.69;100.00;72186.47;4993550;28;20193;-83
2022/06/11 02:17:02;;;;;;;5.60;2.60;;;;;;;-145.69;100.00;72186.47;4993787;28;20259;-84
2022/06/11 02:19:34;;;;;;;5.82;2.88;;;;;;;-145.69;100.00;72168.56;4993423;28;20576;-84
2022/06/11 02:22:06;;;;;;;6.70;2.90;;;;;;;-145.69;100.00;72154.63;4993315;28;20621;-85
2022/06/11 02:24:38;;;;;;;7.33;2.57;;;;;;;-145.69;100.00;72154.63;4993551;28;20197;-84
2022/06/11 02:27:11;;;;;;;3.97;2.67;;;;;;;-145.69;100.00;72150.66;4993572;28;20356;-84
2022/06/11 02:29:40;;;;;;;8.37;2.80;;;;;;;-145.69;100.00;72142.69;4993694;28;20232;-85
2022/06/11 02:32:10;;;;;;;4.40;2.80;;;;;;;-145.69;100.00;72150.66;4993573;28;20201;-85
2022/06/11 02:34:41;;;;;;;4.47;2.40;;;;;;;-145.69;100.00;72146.69;4993358;28;20209;-85
2022/06/11 02:37:10;;;;;;;5.00;2.70;;;;;;;-145.69;100.00;72148.66;4993684;28;20209;-84
2022/06/11 02:39:42;;;;;;;4.17;2.47;;;;;;;-145.69;100.00;72158.63;4993455;28;20209;-83
2022/06/11 02:42:13;;;;;;;6.43;2.70;;;;;;;-145.69;100.00;72170.56;4993325;28;20715;-84
2022/06/11 02:44:39;;;;;;;5.90;2.93;;;;;;;-145.69;100.00;72164.59;4993225;28;20201;-83
2022/06/11 02:47:06;;;;;;;4.10;2.70;;;;;;;-145.69;100.00;72166.56;4992929;28;20219;-83
2022/06/11 02:49:36;;;;;;;4.47;2.67;;;;;;;-145.69;100.00;72180.50;4993321;28;20236;-85
2022/06/11 02:52:13;;;;;;;5.30;2.73;;;;;;;-145.69;100.00;72180.50;4993474;28;20201;-83
2022/06/11 02:54:40;;;;;;;4.33;2.83;;;;;;;-145.69;100.00;72168.56;4992783;28;20197;-82
2022/06/11 02:57:13;;;;;;;5.43;2.80;;;;;;;-145.69;100.00;72170.56;4992945;28;20296;-84
2022/06/11 02:59:40;;;;;;;3.80;3.03;;;;;;;-145.69;100.00;72170.56;4993359;28;20241;-84
2022/06/11 03:02:07;;;;;;;7.70;2.90;;;;;;;-145.69;100.00;72186.47;4994404;28;20202;-84
2022/06/11 03:04:34;;;;;;;5.73;2.87;;;;;;;-145.69;100.00;72170.56;4996913;28;20197;-83
2022/06/11 03:07:01;;;;;;;2.73;2.40;;;;;;;-145.69;100.00;72172.53;4997026;28;20212;-84
2022/06/11 03:09:32;;;;;;;3.73;2.60;;;;;;;-145.69;100.00;72158.63;4996583;28;20237;-82
2022/06/11 03:11:59;;;;;;;5.50;2.33;;;;;;;-145.69;100.00;72158.63;4993703;28;20235;-85
2022/06/11 03:14:25;;;;;;;5.73;2.90;;;;;;;-145.69;100.00;72156.63;4996625;28;20198;-83
2022/06/11 03:16:53;;;;;;;5.50;2.63;;;;;;;-145.69;100.00;72170.56;4996746;28;20674;-83
2022/06/11 03:19:21;;;;;;;6.37;2.70;;;;;;;-145.69;100.00;72186.47;4996627;28;20213;-84
2022/06/11 03:21:47;;;;;;;8.23;2.90;;;;;;;-145.69;100.00;72194.44;4997242;28;20205;-85
2022/06/11 03:24:14;;;;;;;5.37;2.90;;;;;;;-145.69;100.00;72184.50;4997135;28;20225;-83
2022/06/11 03:26:44;;;;;;;4.03;3.07;;;;;;;-145.69;100.00;72170.56;5005202;28;20944;-85
2022/06/11 03:29:11;;;;;;;5.90;3.20;;;;;;;-145.69;100.00;72184.50;5008380;28;20233;-85
2022/06/11 03:31:39;;;;;;;6.80;3.22;;;;;;;-145.69;100.00;72182.50;5006675;28;20436;-83
2022/06/11 03:34:06;;;;;;;6.47;3.03;;;;;;;-145.69;100.00;72170.56;5006558;28;20201;-85
2022/06/11 03:36:32;;;;;;;5.50;2.80;;;;;;;-145.69;100.00;72170.56;4998968;28;20301;-83
2022/06/11 03:38:59;;;;;;;5.00;2.67;;;;;;;-145.69;100.00;72164.59;4996231;28;20256;-85
2022/06/11 03:41:25;;;;;;;8.70;3.00;;;;;;;-145.69;100.00;72164.59;4996662;28;20256;-85
2022/06/11 03:43:53;;;;;;;5.20;2.80;;;;;;;-145.69;100.00;72150.66;4996183;28;20198;-84
2022/06/11 03:46:23;;;;;;;6.63;2.90;;;;;;;-145.69;100.00;72154.63;4996627;28;20244;-84
2022/06/11 03:48:50;;;;;;;5.53;2.30;;;;;;;-145.69;100.00;72164.59;4995438;28;20549;-83
2022/06/11 03:51:17;;;;;;;5.77;2.53;;;;;;;-145.69;100.00;72172.53;4996316;28;20205;-84
2022/06/11 03:53:44;;;;;;;6.83;2.70;;;;;;;-145.69;100.00;72182.50;4996340;28;20652;-84
2022/06/11 03:56:12;;;;;;;4.63;2.80;;;;;;;-145.69;100.00;72188.47;4996337;28;20212;-85
2022/06/11 03:58:40;;;;;;;6.37;2.63;;;;;;;-145.69;100.00;72188.47;4996096;28;20202;-85
2022/06/11 04:01:18;;;;;;;4.73;3.20;;;;;;;-145.69;100.00;72190.47;4976594;28;20257;-84
2022/06/11 04:03:47;;;;;;;6.63;2.80;;;;;;;-145.69;100.00;72184.50;4976698;28;20277;-83
2022/06/11 04:06:14;;;;;;;5.03;3.10;;;;;;;-145.69;100.00;72180.50;4975980;28;20442;-85
2022/06/11 04:08:41;;;;;;;5.80;2.77;;;;;;;-145.69;100.00;72188.47;4976472;28;20692;-85
2022/06/11 04:11:09;;;;;;;3.90;2.70;;;;;;;-145.69;100.00;72190.47;4976719;28;20233;-85
2022/06/11 04:13:40;;;;;;;6.53;3.27;;;;;;;-145.69;100.00;72190.47;4975587;28;20218;-84
2022/06/11 04:16:08;;;;;;;4.83;2.83;;;;;;;-145.69;100.00;72202.41;4976757;28;20198;-84
2022/06/11 04:18:38;;;;;;;6.33;3.10;;;;;;;-145.69;100.00;72192.44;4976306;28;20221;-85
2022/06/11 04:21:13;;;;;;;5.73;2.70;;;;;;;-145.69;100.00;72194.44;4995558;28;20201;-85
2022/06/11 04:23:42;;;;;;;3.20;2.87;;;;;;;-145.69;100.00;72178.53;4995709;28;20204;-84
2022/06/11 04:26:12;;;;;;;3.77;2.60;;;;;;;-145.69;100.00;72172.53;4995572;28;20205;-85
2022/06/11 04:28:39;;;;;;;4.70;2.60;;;;;;;-145.69;100.00;72166.56;4995512;28;20244;-85
2022/06/11 04:31:09;;;;;;;5.20;3.00;;;;;;;-145.69;100.00;72166.56;4994879;28;20197;-85
2022/06/11 04:33:38;;;;;;;5.13;2.83;;;;;;;-145.69;100.00;72166.56;4995660;28;20202;-86
2022/06/11 04:36:06;;;;;;;8.07;3.33;;;;;;;-145.69;100.00;72154.63;4995396;28;20219;-86
2022/06/11 04:38:33;;;;;;;4.83;2.80;;;;;;;-145.69;100.00;72154.63;4995369;28;20232;-85
2022/06/11 04:40:59;;;;;;;5.63;3.37;;;;;;;-145.69;100.00;72148.66;4994644;28;20532;-86
2022/06/11 04:43:26;;;;;;;7.90;3.20;;;;;;;-145.69;100.00;72134.72;4995378;28;20201;-85
2022/06/11 04:45:52;;;;;;;4.80;2.70;;;;;;;-145.69;100.00;72122.78;4995137;28;20656;-86
2022/06/11 04:48:20;;;;;;;7.03;3.23;;;;;;;-145.69;100.00;72110.84;4995917;28;20288;-85
2022/06/11 04:50:47;;;;;;;6.47;2.70;;;;;;;-145.69;100.00;72102.88;4994420;28;20201;-85
2022/06/11 04:53:13;;;;;;;3.53;2.87;;;;;;;-145.69;100.00;72084.97;4994789;28;20660;-84
2022/06/11 04:55:40;;;;;;;3.97;2.70;;;;;;;-145.69;100.00;72071.03;4994755;28;20201;-85
2022/06/11 04:58:07;;;;;;;5.30;2.97;;;;;;;-145.69;100.00;72059.09;4994856;28;20293;-86
2022/06/11 05:00:38;;;;;;;9.43;2.60;;;;;;;-145.69;100.00;72039.19;4994658;28;20668;-86
2022/06/11 05:03:05;;;;;;;3.80;2.50;;;;;;;-145.69;100.00;72027.25;4995531;28;20686;-86
2022/06/11 05:05:34;;;;;;;5.87;2.47;;;;;;;-145.69;100.00;72011.34;4994148;28;20205;-85
2022/06/11 05:08:01;;;;;;;5.73;2.77;;;;;;;-145.69;100.00;72009.34;4994797;28;20711;-86
2022/06/11 05:10:30;;;;;;;4.87;2.33;;;;;;;-145.69;100.00;72003.38;4994296;28;20275;-86
2022/06/11 05:12:58;;;;;;;3.57;2.40;;;;;;;-145.69;100.00;72003.38;4994720;28;20656;-86
2022/06/11 05:15:24;;;;;;;4.60;2.30;;;;;;;-145.69;100.00;71995.41;4994809;28;20259;-87
2022/06/11 05:17:51;;;;;;;3.10;2.50;;;;;;;-145.69;100.00;71983.47;4994742;28;20212;-86
2022/06/11 05:20:18;;;;;;;5.00;2.67;;;;;;;-145.69;100.00;71961.59;4994223;28;20663;-87
2022/06/11 05:22:47;;;;;;;5.22;2.40;;;;;;;-145.69;100.00;71947.66;4994667;28;20228;-87
2022/06/11 05:25:17;;;;;;;2.97;2.40;;;;;;;-145.69;100.00;71935.72;4994019;28;20603;-86
2022/06/11 05:27:46;;;;;;;4.15;2.83;;;;;;;-145.69;100.00;71919.78;4994622;28;20284;-86
2022/06/11 05:30:18;;;;;;;2.80;2.33;;;;;;;-145.69;100.00;71889.94;4994093;28;20256;-85
2022/06/11 05:32:45;;;;;;;3.95;2.40;;;;;;;-145.69;100.00;71868.06;4994286;28;20205;-86
2022/06/11 05:35:16;;;;;;;4.03;2.45;;;;;;;-145.69;100.00;71840.19;4993999;28;20648;-86
2022/06/11 05:37:43;;;;;;;3.22;2.15;;;;;;;-145.69;100.00;71816.31;4994264;28;20214;-86
2022/06/11 05:40:15;;;;;;;2.50;2.00;;;;;;;-145.69;100.00;71754.63;4994019;28;20256;-86
2022/06/11 05:42:47;;;;;;;3.22;2.00;;;;;;;-145.69;100.00;71643.19;4994358;28;20208;-87
2022/06/11 05:45:16;;;;;;;3.17;1.63;;;;;;;-145.69;100.00;71509.84;4994208;28;20660;-86
2022/06/11 05:47:49;;;;;;;2.50;1.58;;;;;;;-145.69;93.63;71390.47;4993990;28;20717;-87
2022/06/11 05:50:19;;;;;;;3.60;1.20;;;;;;;-145.69;84.94;71273.06;4993763;28;20268;-87
2022/06/11 05:52:46;;;;;;;2.67;0.93;;;;;;;-145.69;79.47;71167.59;4993891;28;20292;-87
2022/06/11 05:55:16;;;;;;;2.55;1.10;;;;;;;-145.69;74.16;71082.03;4993701;28;20209;-88
2022/06/11 05:57:44;;;;;;;3.55;1.10;;;;;;;-145.69;73.23;71026.31;4993881;28;20292;-87
2022/06/11 06:00:17;;;;;;;1.85;0.88;;;;;;;-145.69;67.54;70964.66;4993624;28;20783;-87
2022/06/11 06:02:44;;;;;;;2.53;0.80;;;;;;;-145.69;64.77;70904.97;4993680;28;20323;-88
2022/06/11 06:05:15;;;;;;;2.28;1.02;;;;;;;-145.69;61.81;70849.25;4993757;28;20599;-88
2022/06/11 06:07:41;;;;;;;3.00;0.95;;;;;;;-145.69;60.04;70781.59;4993903;28;20232;-88
2022/06/11 06:10:08;;;;;;;1.02;0.68;;;;;;;-145.69;58.29;70741.81;4993097;28;20229;-88
2022/06/11 06:12:41;;;;;;;2.40;1.20;;;;;;;-145.69;57.43;70725.91;4993494;28;20213;-86
2022/06/11 06:15:13;;;;;;;1.50;0.70;;;;;;;-145.69;57.05;70668.19;4993848;28;20256;-87
2022/06/11 06:17:40;;;;;;;1.95;1.02;;;;;;;-145.69;55.94;70652.28;4992697;28;20197;-87
2022/06/11 06:20:10;;;;;;;0.70;0.70;;;;;;;-145.69;57.91;70606.53;4993805;28;20209;-87
2022/06/11 06:22:37;;;;;;;2.17;0.88;;;;;;;-145.69;58.06;70634.38;4993688;28;20693;-87
2022/06/11 06:25:04;;;;;;;2.25;0.73;;;;;;;-145.69;57.64;70640.34;4993363;28;20204;-87
2022/06/11 06:27:34;;;;;;;0.98;0.85;;;;;;;-145.69;57.51;70634.38;4992885;28;20206;-86
2022/06/11 06:30:06;;;;;;;1.55;0.80;;;;;;;-145.69;56.54;70666.22;4993400;28;20631;-86
2022/06/11 06:32:33;;;;;;;1.17;0.70;;;;;;;-145.69;56.35;70753.75;4993566;28;20205;-86
2022/06/11 06:35:05;;;;;;;1.83;0.82;;;;;;;-145.69;54.59;70873.13;4993572;28;20213;-86
2022/06/11 06:37:35;;;;;;;1.35;0.65;;;;;;;-145.69;53.50;70813.44;4995682;28;20208;-86
2022/06/11 06:40:01;;;;;;;0.98;0.70;;;;;;;-145.69;53.60;70745.78;4997163;28;20193;-87
2022/06/11 06:42:30;;;;;;;1.40;0.70;;;;;;;-145.69;52.25;70799.50;4997389;28;20619;-87
2022/06/11 06:44:58;;;;;;;0.98;0.57;;;;;;;-145.69;49.20;70849.25;4997458;28;20201;-86
2022/06/11 06:47:26;;;;;;;1.60;0.55;;;;;;;-145.69;48.37;70865.16;4997178;28;20789;-86
2022/06/11 06:49:53;;;;;;;3.00;0.80;;;;;;;-145.69;53.35;70835.31;4997315;28;20362;-85
2022/06/11 06:52:20;;;;;;;1.88;0.80;;;;;;;-145.69;48.84;70865.16;4996982;28;20316;-86
2022/06/11 06:54:47;;;;;;;2.80;0.77;;;;;;;-145.69;49.35;70757.72;4996639;28;20229;-86
2022/06/11 06:57:13;;;;;;;3.30;0.70;;;;;;;-145.69;47.81;70739.81;4997091;28;20678;-86
2022/06/11 06:59:40;;;;;;;3.55;0.73;;;;;;;-145.69;47.61;70713.97;4997310;28;20213;-87
2022/06/11 07:02:07;;;;;;;1.85;0.65;;;;;;;-145.69;46.74;70708.00;4996681;28;20197;-86
2022/06/11 07:04:35;;;;;;;1.67;0.70;;;;;;;-145.69;51.88;70785.59;4996932;28;20197;-87
2022/06/11 07:07:01;;;;;;;3.05;0.80;;;;;;;-145.69;49.92;70821.41;4997101;28;20205;-86
2022/06/11 07:09:28;;;;;;;2.67;1.00;;;;;;;-145.69;47.60;70837.31;4996811;28;20224;-86
2022/06/11 07:11:54;;;;;;;2.08;0.80;;;;;;;-145.69;56.97;70841.28;4996677;28;20201;-86
2022/06/11 07:14:22;;;;;;;2.22;0.93;;;;;;;-145.69;53.28;70879.09;4996719;28;20197;-86
2022/06/11 07:16:52;;;;;;;1.55;0.70;;;;;;;-145.69;53.98;70885.06;4996542;28;20660;-87
2022/06/11 07:19:22;;;;;;;1.75;0.77;;;;;;;-145.69;54.48;70940.78;4997130;28;20211;-86
2022/06/11 07:21:57;;;;;;;2.25;0.90;;;;;;;-145.69;61.71;70956.69;4995868;28;20208;-86
2022/06/11 07:24:27;;;;;;;2.55;1.10;;;;;;;-145.69;51.76;70956.69;4996953;28;20622;-86
2022/06/11 07:26:57;;;;;;;1.90;0.90;;;;;;;-145.69;50.62;70968.63;4996801;28;20205;-86
2022/06/11 07:29:28;;;;;;;2.65;0.80;;;;;;;-145.69;54.24;70968.63;4995814;28;20452;-86
2022/06/11 07:32:00;;;;;;;2.50;0.90;;;;;;;-145.69;52.49;70992.50;4996489;28;20206;-86
2022/06/11 07:34:28;;;;;;;1.73;0.73;;;;;;;-145.69;50.87;70978.56;4996763;28;20739;-86
2022/06/11 07:36:57;;;;;;;3.13;1.20;;;;;;;-145.69;51.53;70976.59;4996346;28;20201;-86
2022/06/11 07:39:23;;;;;;;3.50;0.98;;;;;;;-145.69;50.95;70966.63;4996392;28;20251;-86
2022/06/11 07:41:50;;;;;;;2.58;0.90;;;;;;;-145.69;52.57;70948.72;4996607;28;20755;-86
2022/06/11 07:44:16;;;;;;;3.25;0.82;;;;;;;-145.69;51.30;70948.72;4996613;28;20667;-86
2022/06/11 07:46:43;;;;;;;2.75;1.10;;;;;;;-145.69;52.47;70980.56;4995844;28;20237;-85
2022/06/11 07:49:09;;;;;;;4.95;1.00;;;;;;;-145.69;50.90;70998.47;4995686;28;20201;-86
2022/06/11 07:51:36;;;;;;;2.10;1.00;;;;;;;-145.69;56.63;71030.31;4995996;28;20229;-85
2022/06/11 07:54:04;;;;;;;1.42;0.80;;;;;;;-145.69;52.94;71034.28;4996166;28;20751;-85
2022/06/11 07:56:30;;;;;;;3.95;1.00;;;;;;;-145.69;52.32;71048.22;4995843;28;20217;-84
2022/06/11 07:58:57;;;;;;;3.67;0.98;;;;;;;-145.69;52.16;71032.28;4995991;28;20292;-86
2022/06/11 08:01:23;;;;;;;3.42;1.10;;;;;;;-145.69;54.92;70990.50;4991970;28;20290;-85
2022/06/11 08:03:50;;;;;;;2.60;1.10;;;;;;;-145.69;51.73;70946.75;4996128;28;20208;-85
2022/06/11 08:06:17;;;;;;;3.58;1.27;;;;;;;-145.69;50.79;70936.78;4995494;28;20699;-83
2022/06/11 08:08:45;;;;;;;3.80;1.05;;;;;;;-145.69;52.49;70954.69;4995401;28;20224;-85
2022/06/11 08:11:12;;;;;;;4.80;1.30;;;;;;;-145.69;52.94;70928.84;4995137;28;20325;-84
2022/06/11 08:13:39;;;;;;;2.75;1.00;;;;;;;-145.69;50.07;70944.75;4995389;28;20459;-84
2022/06/11 08:16:06;;;;;;;5.40;1.25;;;;;;;-145.69;49.37;70980.56;4995281;28;20691;-83
2022/06/11 08:18:33;;;;;;;3.38;1.10;;;;;;;-145.69;50.29;71020.34;4995579;28;20264;-80
2022/06/11 08:21:00;;;;;;;3.80;0.90;;;;;;;-145.69;49.65;70998.47;4995511;28;20209;-81
2022/06/11 08:23:27;;;;;;;1.10;0.70;;;;;;;-145.69;43.53;70970.63;4995712;28;20208;-83
2022/06/11 08:25:56;;;;;;;2.58;1.02;;;;;;;-145.69;45.22;70986.53;4995635;28;20201;-84
2022/06/11 08:28:24;;;;;;;2.75;1.00;;;;;;;-145.69;47.00;70976.59;4995412;28;20219;-82
2022/06/11 08:30:51;;;;;;;1.75;0.90;;;;;;;-145.69;45.33;70998.47;4995257;28;20238;-79
2022/06/11 08:33:19;;;;;;;1.73;0.95;;;;;;;-145.69;48.39;71028.31;4995413;28;20208;-81
2022/06/11 08:35:48;;;;;;;4.70;0.82;;;;;;;-145.69;47.63;71072.09;4995188;28;20252;-82
2022/06/11 08:38:15;;;;;;;2.35;0.90;;;;;;;-145.69;48.60;71070.09;4995035;28;20206;-83
2022/06/11 08:40:44;;;;;;;2.75;1.05;;;;;;;-145.69;51.20;71076.06;4994465;28;20475;-84
2022/06/11 08:43:20;;;;;;;2.97;1.25;;;;;;;-145.69;49.78;71113.88;4994829;28;20290;-82
2022/06/11 08:45:52;;;;;;;1.85;0.80;;;;;;;-145.69;48.82;71115.88;4995099;28;20232;-82
2022/06/11 08:48:30;;;;;;;3.10;0.85;;;;;;;-145.69;48.24;71099.94;4995120;28;20205;-84
2022/06/11 08:51:04;;;;;;;4.03;1.07;;;;;;;-145.69;48.01;71111.88;4993019;28;20464;-82
2022/06/11 08:53:34;;;;;;;2.92;1.00;;;;;;;-145.69;48.94;71076.06;4994804;28;20444;-83
2022/06/11 08:56:01;;;;;;;2.20;1.10;;;;;;;-145.69;49.82;71038.25;4994963;28;20255;-81
2022/06/11 08:58:41;;;;;;;1.83;0.93;;;;;;;-145.69;48.49;70994.50;4994987;28;20201;-81
2022/06/11 09:01:15;;;;;;;4.22;1.30;;;;;;;-145.69;51.13;70980.56;4993857;28;20193;-82
2022/06/11 09:04:04;;;;;;;4.20;1.23;;;;;;;-145.69;59.04;71000.47;4994903;28;20197;-81
2022/06/11 09:06:59;;;;;;;3.40;1.33;;;;;;;-145.69;54.58;70994.50;4994828;28;20634;-81
2022/06/11 09:09:38;;;;;;;3.65;1.33;;;;;;;-145.69;50.62;70968.63;4972770;28;20204;-81
2022/06/11 09:12:20;;;;;;;1.85;1.00;;;;;;;-145.69;45.92;70932.81;4994143;28;20236;-81
2022/06/11 09:15:09;;;;;;;5.40;1.10;;;;;;;-145.69;46.28;70966.63;4994692;28;20296;-81
2022/06/11 09:18:18;;;;;;;4.70;1.17;;;;;;;-145.69;50.75;70980.56;4994517;28;20227;-80
2022/06/11 09:20:57;;;;;;;1.65;0.98;;;;;;;-145.69;46.82;70940.78;4974712;28;20202;-81
2022/06/11 09:23:42;;;;;;;3.10;1.20;;;;;;;-145.69;48.54;70893.03;4974114;28;20848;-79
2022/06/11 09:26:22;;;;;;;6.93;1.02;;;;;;;-145.69;48.89;70857.22;4993768;28;20668;-79
2022/06/11 09:29:02;;;;;;;3.05;1.00;;;;;;;-145.69;46.13;70857.22;4994328;28;20296;-84
2022/06/11 09:31:37;;;;;;;2.85;1.00;;;;;;;-145.69;46.08;70845.28;4994214;28;20240;-79
2022/06/11 09:34:10;;;;;;;2.13;0.95;;;;;;;-145.69;47.44;70841.28;4994306;28;20207;-80
2022/06/11 09:36:40;;;;;;;4.60;1.17;;;;;;;-145.69;44.84;70845.28;4993676;28;20198;-79
2022/06/11 09:39:17;;;;;;;2.38;0.82;;;;;;;-145.69;45.49;70877.09;4993922;28;20201;-81
2022/06/11 09:41:52;;;;;;;1.05;0.73;;;;;;;-145.69;46.54;70902.97;4994225;28;20271;-80
2022/06/11 09:44:32;;;;;;;5.68;1.42;;;;;;;-145.69;45.46;70895.00;4993939;28;20208;-81
2022/06/11 09:47:03;;;;;;;3.28;1.17;;;;;;;-145.69;45.15;70883.06;4993867;28;20233;-81
2022/06/11 09:49:40;;;;;;;1.67;1.00;;;;;;;-145.69;47.00;70873.13;4993069;28;20676;-80
2022/06/11 09:52:16;;;;;;;2.15;0.90;;;;;;;-145.69;49.38;70845.28;4993896;28;20240;-80
2022/06/11 09:54:53;;;;;;;5.15;1.13;;;;;;;-145.69;47.81;70871.13;4994139;28;20235;-82
2022/06/11 09:57:30;;;;;;;5.10;0.90;;;;;;;-145.69;50.23;70851.25;4993563;28;20204;-80
2022/06/11 10:00:21;;;;;;;3.05;1.08;;;;;;;-145.69;45.55;70906.94;4993642;28;20248;-80
2022/06/11 10:03:01;;;;;;;1.67;1.00;;;;;;;-145.69;48.26;70916.91;4974433;28;20229;-81
2022/06/11 10:05:43;;;;;;;3.45;1.10;;;;;;;-145.69;47.01;70906.94;4974468;28;20265;-81
2022/06/11 10:08:17;;;;;;;3.03;0.90;;;;;;;-145.69;54.68;70897.00;4974037;28;20248;-81
2022/06/11 10:10:46;;;;;;;2.60;1.17;;;;;;;-145.69;47.38;70869.16;4973680;28;20229;-81
2022/06/11 10:13:30;;;;;;;4.18;1.10;;;;;;;-145.69;46.83;70867.16;4984801;28;20198;-79
2022/06/11 10:15:58;;;;;;;4.10;1.10;;;;;;;-145.69;46.92;70869.16;4993632;28;20328;-81
2022/06/11 10:18:31;;;;;;;2.03;0.98;;;;;;;-145.69;48.91;70817.41;4993455;28;20208;-83
2022/06/11 10:21:05;;;;;;;2.60;1.02;;;;;;;-145.69;46.04;70833.34;4993333;28;20205;-79
2022/06/11 10:23:43;;;;;;;2.00;1.08;;;;;;;-145.69;44.37;70857.22;4993451;28;20679;-80
2022/06/11 10:26:15;;;;;;;3.95;1.10;;;;;;;-145.69;46.08;70843.28;4993221;28;20193;-80
2022/06/11 10:28:50;;;;;;;3.90;1.05;;;;;;;-145.69;46.14;70845.28;4993388;28;20441;-81
2022/06/11 10:31:20;;;;;;;1.75;1.15;;;;;;;-145.69;47.12;70799.50;4993169;28;20228;-80
2022/06/11 10:33:51;;;;;;;4.00;0.95;;;;;;;-145.69;47.40;70799.50;4993169;28;20611;-81
2022/06/11 10:36:24;;;;;;;2.10;1.10;;;;;;;-145.69;49.96;70769.66;4992875;28;20648;-81
2022/06/11 10:38:55;;;;;;;1.42;0.90;;;;;;;-145.69;48.15;70739.81;4993410;28;20264;-82
2022/06/11 10:41:27;;;;;;;4.40;1.50;;;;;;;-145.69;43.78;70783.59;4993447;28;20206;-80
2022/06/11 10:44:04;;;;;;;4.88;1.40;;;;;;;-145.69;49.24;70805.47;4993277;28;20209;-81
2022/06/11 10:46:33;;;;;;;3.88;1.13;;;;;;;-145.69;47.14;70805.47;4993026;28;20240;-81
2022/06/11 10:48:59;;;;;;;2.83;1.20;;;;;;;-145.69;46.27;70759.72;4993151;28;20592;-81
2022/06/11 10:51:33;;;;;;;3.17;1.20;;;;;;;-145.69;45.27;70759.72;4992418;28;20229;-81
2022/06/11 10:54:06;;;;;;;1.77;0.90;;;;;;;-145.69;44.71;70715.94;4993126;28;20260;-80
2022/06/11 10:56:51;;;;;;;2.60;1.00;;;;;;;-145.69;43.09;70729.88;4993190;28;20209;-82
2022/06/11 10:59:24;;;;;;;4.45;1.35;;;;;;;-145.69;46.19;70698.03;4992976;28;20672;-80
2022/06/11 11:01:57;;;;;;;3.05;1.10;;;;;;;-145.69;43.40;70753.75;4992709;28;20201;-81
2022/06/11 11:04:40;;;;;;;1.63;0.85;;;;;;;-145.69;42.76;70741.81;4993341;28;20206;-81
2022/06/11 11:07:13;;;;;;;1.90;1.10;;;;;;;-145.69;43.20;70723.91;4991416;28;20201;-82
2022/06/11 11:09:40;;;;;;;5.57;0.90;;;;;;;-145.69;44.86;70682.13;4993390;28;20212;-83
2022/06/11 11:12:16;;;;;;;3.30;1.08;;;;;;;-145.69;45.80;70668.19;4992782;28;20268;-82
2022/06/11 11:14:45;;;;;;;1.60;1.00;;;;;;;-145.69;50.24;70620.44;4993059;28;20231;-82
2022/06/11 11:17:17;;;;;;;2.40;1.00;;;;;;;-145.69;47.85;70614.47;4992916;28;20223;-83
2022/06/11 11:20:29;;;;;;;1.35;1.00;;;;;;;-145.69;52.46;70578.69;4992778;28;20208;-82
2022/06/11 11:22:35;;;;;;;3.20;0.80;;;;;;;-145.69;42.71;70570.72;4992764;28;20208;-83
2022/06/11 11:25:07;;;;;;;2.25;1.02;;;;;;;-145.69;42.80;70680.13;4996392;28;20201;-82
2022/06/11 11:27:44;;;;;;;1.83;0.80;;;;;;;-145.69;46.38;70702.03;4996303;28;20208;-83
2022/06/11 11:30:24;;;;;;;1.95;1.00;;;;;;;-145.69;44.69;70706.00;4996400;28;20422;-83
2022/06/11 11:32:51;;;;;;;1.98;1.00;;;;;;;-145.69;45.98;70709.97;4996586;28;20209;-84
2022/06/11 11:35:20;;;;;;;3.40;0.90;;;;;;;-145.69;45.20;70654.28;4996320;28;20255;-83